createdAt,value
2023-05-19T00:01:17.770Z,44.51
2023-05-19T00:03:53.909Z,44.42
2023-05-19T00:06:23.551Z,44.49
2023-05-19T00:08:56.025Z,44.45
2023-05-19T00:11:24.192Z,44.44
2023-05-19T00:13:52.347Z,44.33
2023-05-19T00:16:19.973Z,44.47
2023-05-19T00:18:48.356Z,44.54
2023-05-19T00:21:16.829Z,44.57
2023-05-19T00:23:44.325Z,44.59
2023-05-19T00:26:11.786Z,44.64
2023-05-19T00:28:39.918Z,44.66
2023-05-19T00:31:07.405Z,44.66
2023-05-19T00:33:34.953Z,44.67
2023-05-19T00:36:03.657Z,44.66
2023-05-19T00:38:31.387Z,44.67
2023-05-19T00:40:59.619Z,44.67
2023-05-19T00:43:27.514Z,44.66
2023-05-19T00:45:55.001Z,44.66
2023-05-19T00:48:22.630Z,44.68
2023-05-19T00:50:50.472Z,44.70
2023-05-19T00:53:18.280Z,44.68
2023-05-19T00:55:45.915Z,44.69
2023-05-19T00:58:14.027Z,44.68
2023-05-19T01:00:42.802Z,44.69
2023-05-19T01:03:13.291Z,44.68
2023-05-19T01:05:41.803Z,44.67
2023-05-19T01:08:09.341Z,44.65
2023-05-19T01:10:37.303Z,44.65
2023-05-19T01:13:05.792Z,44.66
2023-05-19T01:16:02.169Z,44.64
2023-05-19T01:18:41.049Z,44.62
2023-05-19T01:21:44.611Z,44.61
2023-05-19T01:24:22.986Z,44.61
2023-05-19T01:27:13.876Z,44.64
2023-05-19T01:30:16.955Z,44.64
2023-05-19T01:32:44.434Z,44.67
2023-05-19T01:35:12.236Z,44.69
2023-05-19T01:37:39.686Z,44.75
2023-05-19T01:40:10.607Z,44.73
2023-05-19T01:42:40.020Z,44.72
2023-05-19T01:45:10.635Z,44.69
2023-05-19T01:47:40.413Z,44.65
2023-05-19T01:50:08.115Z,44.73
2023-05-19T01:52:35.717Z,44.71
2023-05-19T01:55:03.536Z,44.71
2023-05-19T01:57:42.321Z,44.74
2023-05-19T02:00:31.035Z,44.73
2023-05-19T02:03:06.054Z,44.68
2023-05-19T02:05:49.735Z,44.73
2023-05-19T02:08:36.093Z,44.69
2023-05-19T02:11:08.020Z,44.69
2023-05-19T02:13:37.986Z,44.74
2023-05-19T02:16:05.942Z,44.66
2023-05-19T02:18:33.617Z,44.62
2023-05-19T02:21:02.108Z,44.69
2023-05-19T02:23:29.616Z,44.72
2023-05-19T02:25:58.038Z,44.71
2023-05-19T02:28:28.480Z,44.75
2023-05-19T02:30:55.968Z,44.72
2023-05-19T02:33:26.100Z,44.71
2023-05-19T02:35:54.084Z,44.70
2023-05-19T02:38:21.575Z,44.70
2023-05-19T02:40:49.066Z,44.70
2023-05-19T02:43:16.817Z,44.70
2023-05-19T02:45:44.300Z,44.68
2023-05-19T02:48:11.832Z,44.68
2023-05-19T02:50:39.709Z,44.69
2023-05-19T02:53:07.157Z,44.67
2023-05-19T02:55:34.699Z,44.66
2023-05-19T02:58:02.455Z,44.73
2023-05-19T03:00:30.113Z,44.75
2023-05-19T03:03:02.691Z,44.77
2023-05-19T03:05:31.198Z,44.79
2023-05-19T03:07:58.736Z,44.77
2023-05-19T03:10:26.289Z,44.77
2023-05-19T03:12:54.060Z,44.76
2023-05-19T03:15:23.421Z,44.76
2023-05-19T03:17:51.108Z,44.76
2023-05-19T03:20:19.025Z,44.71
2023-05-19T03:22:46.513Z,44.73
2023-05-19T03:25:14.006Z,44.73
2023-05-19T03:27:42.239Z,44.78
2023-05-19T03:30:10.215Z,44.77
2023-05-19T03:32:40.163Z,44.77
2023-05-19T03:35:08.422Z,44.73
2023-05-19T03:37:35.970Z,44.71
2023-05-19T03:40:05.459Z,44.65
2023-05-19T03:42:34.093Z,44.63
2023-05-19T03:45:01.655Z,44.66
2023-05-19T03:47:29.284Z,44.61
2023-05-19T03:49:57.470Z,44.60
2023-05-19T03:52:27.273Z,44.64
2023-05-19T03:54:54.997Z,44.68
2023-05-19T03:57:22.814Z,44.69
2023-05-19T03:59:50.288Z,44.63
2023-05-19T04:02:17.777Z,44.68
2023-05-19T04:04:45.618Z,44.74
2023-05-19T04:07:13.086Z,44.79
2023-05-19T04:09:42.912Z,44.75
2023-05-19T04:12:10.985Z,44.68
2023-05-19T04:14:38.597Z,44.64
2023-05-19T04:17:06.087Z,44.62
2023-05-19T04:19:34.037Z,44.60
2023-05-19T04:22:02.456Z,44.55
2023-05-19T04:24:30.630Z,44.52
2023-05-19T04:27:02.717Z,44.48
2023-05-19T04:29:30.487Z,44.47
2023-05-19T04:31:58.325Z,44.48
2023-05-19T04:34:25.841Z,44.43
2023-05-19T04:36:53.552Z,44.42
2023-05-19T04:39:21.879Z,44.40
2023-05-19T04:41:49.631Z,44.36
2023-05-19T04:44:18.504Z,44.32
2023-05-19T04:46:46.826Z,44.29
2023-05-19T04:49:14.538Z,44.24
2023-05-19T04:51:42.407Z,44.22
2023-05-19T04:54:10.360Z,44.21
2023-05-19T04:56:37.934Z,44.19
2023-05-19T04:59:06.951Z,44.16
2023-05-19T05:01:35.221Z,44.15
2023-05-19T05:04:06.396Z,44.10
2023-05-19T05:06:33.919Z,44.08
2023-05-19T05:09:03.733Z,44.08
2023-05-19T05:11:31.537Z,44.06
2023-05-19T05:13:59.382Z,44.03
2023-05-19T05:16:27.663Z,44.00
2023-05-19T05:18:55.913Z,43.99
2023-05-19T05:21:24.346Z,43.97
2023-05-19T05:23:52.416Z,43.96
2023-05-19T05:26:23.282Z,43.94
2023-05-19T05:28:52.344Z,43.92
2023-05-19T05:31:19.816Z,43.89
2023-05-19T05:33:47.285Z,43.88
2023-05-19T05:36:15.534Z,43.87
2023-05-19T05:38:43.004Z,43.86
2023-05-19T05:41:11.123Z,43.84
2023-05-19T05:43:38.955Z,43.83
2023-05-19T05:46:06.477Z,43.80
2023-05-19T05:48:34.248Z,43.80
2023-05-19T05:51:02.131Z,43.79
2023-05-19T05:53:32.137Z,43.77
2023-05-19T05:56:00.135Z,43.77
2023-05-19T05:58:28.861Z,43.73
2023-05-19T06:00:58.043Z,43.75
2023-05-19T06:03:27.033Z,43.76
2023-05-19T06:05:55.153Z,43.76
2023-05-19T06:08:22.729Z,43.76
2023-05-19T06:10:50.690Z,43.74
2023-05-19T06:13:22.539Z,43.74
2023-05-19T06:15:51.177Z,43.71
2023-05-19T06:18:20.006Z,43.73
2023-05-19T06:20:48.686Z,43.69
2023-05-19T06:23:17.304Z,43.70
2023-05-19T06:25:44.762Z,43.70
2023-05-19T06:28:12.425Z,43.71
2023-05-19T06:30:40.355Z,43.73
2023-05-19T06:33:08.701Z,43.71
2023-05-19T06:35:36.535Z,43.71
2023-05-19T06:38:04.287Z,43.71
2023-05-19T06:40:32.027Z,43.71
2023-05-19T06:42:59.701Z,43.74
2023-05-19T06:45:28.438Z,43.71
2023-05-19T06:47:58.366Z,43.76
2023-05-19T06:50:26.033Z,43.79
2023-05-19T06:52:54.932Z,43.84
2023-05-19T06:55:22.419Z,43.80
2023-05-19T06:57:49.977Z,43.69
2023-05-19T07:00:30.618Z,43.69
2023-05-19T07:02:58.437Z,43.75
2023-05-19T07:05:26.197Z,43.68
2023-05-19T07:07:54.054Z,43.95
2023-05-19T07:10:24.440Z,43.99
2023-05-19T07:12:52.759Z,44.18
2023-05-19T07:15:21.082Z,44.14
2023-05-19T07:17:48.798Z,44.06
2023-05-19T07:20:16.982Z,44.03
2023-05-19T07:22:44.746Z,44.02
2023-05-19T07:25:12.254Z,44.01
2023-05-19T07:27:40.133Z,44.00
2023-05-19T07:30:08.420Z,44.00
2023-05-19T07:32:36.041Z,43.99
2023-05-19T07:35:04.323Z,43.95
2023-05-19T07:37:31.916Z,43.95
2023-05-19T07:39:59.447Z,43.94
2023-05-19T07:42:27.172Z,43.90
2023-05-19T07:44:54.627Z,43.89
2023-05-19T07:47:22.191Z,43.87
2023-05-19T07:49:51.769Z,43.85
2023-05-19T07:52:19.488Z,43.84
2023-05-19T07:54:47.052Z,43.79
2023-05-19T07:57:15.034Z,43.80
2023-05-19T07:59:42.467Z,43.79
2023-05-19T08:02:10.035Z,43.78
2023-05-19T08:04:37.856Z,43.77
2023-05-19T08:07:05.363Z,43.78
2023-05-19T08:09:32.876Z,43.79
2023-05-19T08:12:01.792Z,43.78
2023-05-19T08:14:29.332Z,43.80
2023-05-19T08:16:56.756Z,43.81
2023-05-19T08:19:24.815Z,43.81
2023-05-19T08:21:52.332Z,43.84
2023-05-19T08:24:19.770Z,43.87
2023-05-19T08:26:47.481Z,43.89
2023-05-19T08:29:14.986Z,43.89
2023-05-19T08:31:42.552Z,43.90
2023-05-19T08:34:10.663Z,43.91
2023-05-19T08:36:38.161Z,43.96
2023-05-19T08:39:05.951Z,44.00
2023-05-19T08:41:33.833Z,44.03
2023-05-19T08:44:01.281Z,44.06
2023-05-19T08:46:28.772Z,44.12
2023-05-19T08:48:59.240Z,44.11
2023-05-19T08:51:48.400Z,44.13
2023-05-19T08:54:16.627Z,44.08
2023-05-19T08:56:44.885Z,44.07
2023-05-19T08:59:13.390Z,44.10
2023-05-19T09:01:43.143Z,44.09
2023-05-19T09:04:10.668Z,44.17
2023-05-19T09:06:40.971Z,44.13
2023-05-19T09:09:09.155Z,44.11
2023-05-19T09:11:37.765Z,44.10
2023-05-19T09:14:05.771Z,44.08
2023-05-19T09:16:34.144Z,44.08
2023-05-19T09:19:02.028Z,44.08
2023-05-19T09:21:33.153Z,44.09
2023-05-19T09:24:05.004Z,44.07
2023-05-19T09:26:39.707Z,44.09
2023-05-19T09:29:16.789Z,44.09
2023-05-19T09:31:51.131Z,44.09
2023-05-19T09:34:19.092Z,44.09
2023-05-19T09:36:49.461Z,44.07
2023-05-19T09:39:17.497Z,44.09
2023-05-19T09:41:45.249Z,44.09
2023-05-19T09:44:23.065Z,44.10
2023-05-19T09:46:51.078Z,44.08
2023-05-19T09:49:22.307Z,44.10
2023-05-19T09:51:51.325Z,44.14
2023-05-19T09:54:20.526Z,44.14
2023-05-19T09:56:53.196Z,44.02
2023-05-19T09:59:21.044Z,44.08
2023-05-19T10:01:48.723Z,44.15
2023-05-19T10:04:16.654Z,44.13
2023-05-19T10:06:44.245Z,44.12
2023-05-19T10:09:11.709Z,44.10
2023-05-19T10:11:39.482Z,44.11
2023-05-19T10:14:06.951Z,44.11
2023-05-19T10:16:34.423Z,44.06
2023-05-19T10:19:02.416Z,44.04
2023-05-19T10:21:30.100Z,44.02
2023-05-19T10:23:57.927Z,44.09
2023-05-19T10:26:26.154Z,44.09
2023-05-19T10:28:54.683Z,44.15
2023-05-19T10:31:22.139Z,44.24
2023-05-19T10:34:13.020Z,44.25
2023-05-19T10:36:47.745Z,44.19
2023-05-19T10:39:28.952Z,44.30
2023-05-19T10:42:41.584Z,44.28
2023-05-19T10:45:20.236Z,44.40
2023-05-19T10:47:47.760Z,44.34
2023-05-19T10:50:15.691Z,44.33
2023-05-19T10:52:44.684Z,44.26
2023-05-19T10:55:17.507Z,44.24
2023-05-19T10:57:56.816Z,44.23
2023-05-19T11:00:28.059Z,44.28
2023-05-19T11:03:15.768Z,44.33
2023-05-19T11:05:45.690Z,44.31
2023-05-19T11:08:13.322Z,44.34
2023-05-19T11:10:44.029Z,44.12
2023-05-19T11:13:19.157Z,44.05
2023-05-19T11:15:46.838Z,43.93
2023-05-19T11:18:16.060Z,43.86
2023-05-19T11:20:44.622Z,43.94
2023-05-19T11:23:18.515Z,44.05
2023-05-19T11:25:49.488Z,44.16
2023-05-19T11:28:21.232Z,44.01
2023-05-19T11:30:52.150Z,43.96
2023-05-19T11:33:20.907Z,43.94
2023-05-19T11:35:49.861Z,44.00
2023-05-19T11:38:18.580Z,44.04
2023-05-19T11:40:47.732Z,44.03
2023-05-19T11:43:16.788Z,44.00
2023-05-19T11:45:44.908Z,43.96
2023-05-19T11:48:13.048Z,43.92
2023-05-19T11:50:44.202Z,43.87
2023-05-19T11:53:13.334Z,43.85
2023-05-19T11:55:47.576Z,43.80
2023-05-19T11:58:15.525Z,43.76
2023-05-19T12:00:45.940Z,43.72
2023-05-19T12:03:13.924Z,43.70
2023-05-19T12:05:45.487Z,43.69
2023-05-19T12:08:13.693Z,43.72
2023-05-19T12:10:41.254Z,43.65
2023-05-19T12:13:11.799Z,43.60
2023-05-19T12:15:39.731Z,43.64
2023-05-19T12:18:07.498Z,43.60
2023-05-19T12:20:38.238Z,43.58
2023-05-19T12:23:06.496Z,43.56
2023-05-19T12:25:34.293Z,43.56
2023-05-19T12:28:05.006Z,43.56
2023-05-19T12:30:33.953Z,43.55
2023-05-19T12:33:02.596Z,43.52
2023-05-19T12:35:32.140Z,43.47
2023-05-19T12:38:04.244Z,43.49
2023-05-19T12:40:32.033Z,43.44
2023-05-19T12:43:00.421Z,43.46
2023-05-19T12:45:28.431Z,43.43
2023-05-19T12:47:56.733Z,43.42
2023-05-19T12:50:30.575Z,43.40
2023-05-19T12:52:59.822Z,43.35
2023-05-19T12:55:27.750Z,43.25
2023-05-19T12:57:57.383Z,43.19
2023-05-19T13:00:27.789Z,43.19
2023-05-19T13:03:02.958Z,43.07
2023-05-19T13:05:32.108Z,43.14
2023-05-19T13:08:09.795Z,43.25
2023-05-19T13:10:39.321Z,43.34
2023-05-19T13:13:07.573Z,43.66
2023-05-19T13:15:45.720Z,43.77
2023-05-19T13:18:13.718Z,43.95
2023-05-19T13:20:42.644Z,44.07
2023-05-19T13:23:10.777Z,44.33
2023-05-19T13:25:38.676Z,44.40
2023-05-19T13:28:06.750Z,44.54
2023-05-19T13:30:39.018Z,44.87
2023-05-19T13:33:07.010Z,44.78
2023-05-19T13:35:37.596Z,44.83
2023-05-19T13:38:06.798Z,44.91
2023-05-19T13:40:35.108Z,45.04
2023-05-19T13:43:03.448Z,45.08
2023-05-19T13:45:30.962Z,45.16
2023-05-19T13:47:58.879Z,45.39
2023-05-19T13:50:26.519Z,45.50
2023-05-19T13:52:54.200Z,45.54
2023-05-19T13:55:23.316Z,45.60
2023-05-19T13:57:51.014Z,45.64
2023-05-19T14:00:19.180Z,45.64
2023-05-19T14:02:47.027Z,45.74
2023-05-19T14:05:14.659Z,45.75
2023-05-19T14:07:42.606Z,45.73
2023-05-19T14:10:10.560Z,45.73
2023-05-19T14:12:55.266Z,45.78
2023-05-19T14:15:26.795Z,45.81
2023-05-19T14:17:54.509Z,45.84
2023-05-19T14:20:22.074Z,45.88
2023-05-19T14:22:50.157Z,45.90
2023-05-19T14:25:17.603Z,45.89
2023-05-19T14:27:45.036Z,45.91
2023-05-19T14:30:12.972Z,45.98
2023-05-19T14:32:40.513Z,45.96
2023-05-19T14:35:08.102Z,45.95
2023-05-19T14:37:35.858Z,45.98
2023-05-19T14:40:04.572Z,46.00
2023-05-19T14:42:32.175Z,46.00
2023-05-19T14:44:59.963Z,46.01
2023-05-19T14:47:27.590Z,46.12
2023-05-19T14:49:55.225Z,46.16
2023-05-19T14:52:23.073Z,46.19
2023-05-19T14:54:50.541Z,46.25
2023-05-19T14:57:18.048Z,46.26
2023-05-19T14:59:45.804Z,46.23
2023-05-19T15:02:13.323Z,46.27
2023-05-19T15:04:40.871Z,46.36
2023-05-19T15:07:10.375Z,46.41
2023-05-19T15:09:38.543Z,46.42
2023-05-19T15:12:06.145Z,46.48
2023-05-19T15:14:33.967Z,46.50
2023-05-19T15:17:01.645Z,46.53
2023-05-19T15:19:29.270Z,46.60
2023-05-19T15:21:57.029Z,46.62
2023-05-19T15:24:24.477Z,46.64
2023-05-19T15:26:52.447Z,46.66
2023-05-19T15:29:20.366Z,46.59
2023-05-19T15:31:51.788Z,46.25
2023-05-19T15:34:22.360Z,45.95
2023-05-19T15:36:50.167Z,46.02
2023-05-19T15:39:17.862Z,45.94
2023-05-19T15:41:45.322Z,45.78
2023-05-19T15:44:13.132Z,45.57
2023-05-19T15:46:40.726Z,45.43
2023-05-19T15:49:08.303Z,45.25
2023-05-19T15:51:36.071Z,44.99
2023-05-19T15:54:03.545Z,44.70
2023-05-19T15:56:31.055Z,44.73
2023-05-19T15:58:58.910Z,44.98
2023-05-19T16:01:26.621Z,44.98
2023-05-19T16:03:54.624Z,44.97
2023-05-19T16:06:22.286Z,45.09
2023-05-19T16:08:49.796Z,45.24
2023-05-19T16:11:18.369Z,45.18
2023-05-19T16:13:45.835Z,45.22
2023-05-19T16:16:13.405Z,45.24
2023-05-19T16:18:41.396Z,45.26
2023-05-19T16:21:08.924Z,45.14
2023-05-19T16:23:36.387Z,45.13
2023-05-19T16:26:04.250Z,45.18
2023-05-19T16:28:32.459Z,45.21
2023-05-19T16:31:00.240Z,45.31
2023-05-19T16:33:28.325Z,45.39
2023-05-19T16:35:56.273Z,45.45
2023-05-19T16:38:24.014Z,45.51
2023-05-19T16:40:52.091Z,45.56
2023-05-19T16:43:19.522Z,45.59
2023-05-19T16:45:47.028Z,45.59
2023-05-19T16:48:14.803Z,45.60
2023-05-19T16:50:42.391Z,45.60
2023-05-19T16:53:09.874Z,45.59
2023-05-19T16:55:37.587Z,45.60
2023-05-19T16:58:05.106Z,45.62
2023-05-19T17:00:32.722Z,45.63
2023-05-19T17:03:00.920Z,45.64
2023-05-19T17:05:29.067Z,45.66
2023-05-19T17:07:56.557Z,45.72
2023-05-19T17:10:24.272Z,45.72
2023-05-19T17:12:51.877Z,45.80
2023-05-19T17:15:19.376Z,45.86
2023-05-19T17:17:47.155Z,45.88
2023-05-19T17:20:14.871Z,45.89
2023-05-19T17:22:42.322Z,45.91
2023-05-19T17:25:10.123Z,45.94
2023-05-19T17:27:37.699Z,45.92
2023-05-19T17:30:06.230Z,45.99
2023-05-19T17:32:38.512Z,46.04
2023-05-19T17:35:06.870Z,46.13
2023-05-19T17:37:34.729Z,46.17
2023-05-19T17:40:02.226Z,46.25
2023-05-19T17:42:31.689Z,46.34
2023-05-19T17:44:59.684Z,46.41
2023-05-19T17:47:27.350Z,46.48
2023-05-19T17:49:54.848Z,46.56
2023-05-19T17:52:23.022Z,46.62
2023-05-19T17:54:50.752Z,46.68
2023-05-19T17:57:18.537Z,46.76
2023-05-19T17:59:46.575Z,46.78
2023-05-19T18:02:15.715Z,46.83
2023-05-19T18:04:43.816Z,46.92
2023-05-19T18:07:11.968Z,46.97
2023-05-19T18:09:39.748Z,47.03
2023-05-19T18:12:08.015Z,47.04
2023-05-19T18:14:35.551Z,47.12
2023-05-19T18:17:03.051Z,47.12
2023-05-19T18:19:30.802Z,47.18
2023-05-19T18:21:58.302Z,47.23
2023-05-19T18:24:25.813Z,47.25
2023-05-19T18:26:53.536Z,47.21
2023-05-19T18:29:21.032Z,47.12
2023-05-19T18:31:48.553Z,47.02
2023-05-19T18:34:16.338Z,46.93
2023-05-19T18:36:43.902Z,46.78
2023-05-19T18:39:11.537Z,46.63
2023-05-19T18:41:42.686Z,46.31
2023-05-19T18:44:11.131Z,46.30
2023-05-19T18:46:38.899Z,46.35
2023-05-19T18:49:06.352Z,45.97
2023-05-19T18:51:35.992Z,45.82
2023-05-19T18:54:03.857Z,45.72
2023-05-19T18:56:33.303Z,45.71
2023-05-19T18:59:00.838Z,46.00
2023-05-19T19:01:28.768Z,46.21
2023-05-19T19:03:56.409Z,46.37
2023-05-19T19:06:24.106Z,46.55
2023-05-19T19:08:51.977Z,46.76
2023-05-19T19:11:19.521Z,46.92
2023-05-19T19:13:51.036Z,47.11
2023-05-19T19:16:19.116Z,47.25
2023-05-19T19:18:46.992Z,47.37
2023-05-19T19:21:14.626Z,47.52
2023-05-19T19:23:42.426Z,47.59
2023-05-19T19:26:10.030Z,47.66
2023-05-19T19:28:37.923Z,47.72
2023-05-19T19:31:05.653Z,47.78
2023-05-19T19:33:33.158Z,47.83
2023-05-19T19:36:01.398Z,47.88
2023-05-19T19:38:29.314Z,47.90
2023-05-19T19:40:56.858Z,47.92
2023-05-19T19:43:24.394Z,47.96
2023-05-19T19:46:00.634Z,47.96
2023-05-19T19:48:28.509Z,47.97
2023-05-19T19:50:56.931Z,48.00
2023-05-19T19:53:24.403Z,48.02
2023-05-19T19:56:01.580Z,48.03
2023-05-19T19:58:29.396Z,47.98
2023-05-19T20:01:01.301Z,48.01
2023-05-19T20:03:29.419Z,47.68
2023-05-19T20:05:57.116Z,46.89
2023-05-19T20:08:24.918Z,46.71
2023-05-19T20:10:53.035Z,47.30
2023-05-19T20:13:20.744Z,47.38
2023-05-19T20:15:48.302Z,47.34
2023-05-19T20:18:16.202Z,47.26
2023-05-19T20:20:43.787Z,47.25
2023-05-19T20:23:12.586Z,47.18
2023-05-19T20:25:53.693Z,47.11
2023-05-19T20:28:26.324Z,46.99
2023-05-19T20:30:54.057Z,46.96
2023-05-19T20:33:21.567Z,46.90
2023-05-19T20:35:49.031Z,46.88
2023-05-19T20:38:16.722Z,46.85
2023-05-19T20:40:44.282Z,46.83
2023-05-19T20:43:12.256Z,46.78
2023-05-19T20:45:42.496Z,46.72
2023-05-19T20:48:11.386Z,46.68
2023-05-19T20:50:39.306Z,46.59
2023-05-19T20:53:07.522Z,46.53
2023-05-19T20:55:37.940Z,46.54
2023-05-19T20:58:05.493Z,46.49
2023-05-19T21:00:33.784Z,46.38
2023-05-19T21:03:01.797Z,46.51
2023-05-19T21:05:29.377Z,46.53
2023-05-19T21:07:57.151Z,46.36
2023-05-19T21:10:24.617Z,46.20
2023-05-19T21:12:52.053Z,46.15
2023-05-19T21:15:19.887Z,46.10
2023-05-19T21:17:47.596Z,46.05
2023-05-19T21:20:15.042Z,46.04
2023-05-19T21:22:42.786Z,46.01
2023-05-19T21:25:10.468Z,46.00
2023-05-19T21:27:39.485Z,45.97
2023-05-19T21:30:07.749Z,45.95
2023-05-19T21:32:35.427Z,45.92
2023-05-19T21:35:03.119Z,45.92
2023-05-19T21:37:30.802Z,45.92
2023-05-19T21:39:58.424Z,45.90
2023-05-19T21:42:25.898Z,46.00
2023-05-19T21:44:53.676Z,45.91
2023-05-19T21:47:21.112Z,45.89
2023-05-19T21:49:48.598Z,45.87
2023-05-19T21:52:16.336Z,45.85
2023-05-19T21:54:43.757Z,45.84
2023-05-19T21:57:12.622Z,45.80
2023-05-19T21:59:40.453Z,45.81
2023-05-19T22:02:08.126Z,45.76
2023-05-19T22:04:37.060Z,45.77
2023-05-19T22:07:06.390Z,45.79
2023-05-19T22:09:33.886Z,45.77
2023-05-19T22:12:01.612Z,45.74
2023-05-19T22:14:29.065Z,45.73
2023-05-19T22:16:56.594Z,45.79
2023-05-19T22:19:24.415Z,45.82
2023-05-19T22:22:01.603Z,45.79
2023-05-19T22:24:34.402Z,45.78
2023-05-19T22:27:01.867Z,45.77
2023-05-19T22:29:29.337Z,45.77
2023-05-19T22:31:57.020Z,45.81
2023-05-19T22:34:24.535Z,45.77
2023-05-19T22:36:52.027Z,45.76
2023-05-19T22:39:19.787Z,45.80
2023-05-19T22:41:47.331Z,45.79
2023-05-19T22:44:16.267Z,45.77
2023-05-19T22:46:48.201Z,45.77
2023-05-19T22:49:15.649Z,45.69
2023-05-19T22:51:43.127Z,45.68
2023-05-19T22:54:10.987Z,45.65
2023-05-19T22:56:38.465Z,45.64
2023-05-19T22:59:06.207Z,45.59
2023-05-19T23:01:34.052Z,45.66
2023-05-19T23:04:01.603Z,45.59
2023-05-19T23:06:29.114Z,45.52
2023-05-19T23:09:03.652Z,45.48
2023-05-19T23:11:31.127Z,45.52
2023-05-19T23:13:58.959Z,45.50
2023-05-19T23:16:26.440Z,45.49
2023-05-19T23:18:53.962Z,45.45
2023-05-19T23:21:21.698Z,45.46
2023-05-19T23:23:49.770Z,45.40
2023-05-19T23:26:17.236Z,45.35
2023-05-19T23:28:44.931Z,45.33
2023-05-19T23:31:12.391Z,45.35
2023-05-19T23:33:39.940Z,45.32
2023-05-19T23:36:08.550Z,45.33
2023-05-19T23:38:36.619Z,45.31
2023-05-19T23:41:04.987Z,45.30
2023-05-19T23:43:32.860Z,45.27
2023-05-19T23:46:00.584Z,45.23
2023-05-19T23:48:28.737Z,45.23
2023-05-19T23:50:57.391Z,45.21
2023-05-19T23:53:25.060Z,45.22
2023-05-19T23:55:52.587Z,45.20
2023-05-19T23:58:20.679Z,45.20
